Cadaretta, Mississippi
Current Conditions -  °F | °C
As of 11:53 AM on Tuesday 21 Oct 2014 (Local Time) from KGWO Reporting Station
Clear Clear  
Wind Chill: 73°   Ceiling: Unl
Heat Index: 73°   Visibility: 10mi
Dew Point: 59°   Wind: 3mph
Humidity: 61%   Direction: 220°SW
Pressure: 30.09"   Gusts: NA
Location:  33.7185°N, 89.5665°W
Report Text: KGWO 211653Z AUTO 22003KT 10SM CLR 23/15 A3009 RMK AO2 SLP188 T02280150 TSNO
Loading
Personal Weather Stations






























Interactive Weather Map
Tropical Storm Tracking
New forecast layout! Learn more

10-Day Weather Forecast

Advertisements
Track Severe Weather on mobile